Commodore Clipper — C6QQ3 — position and weather

sailwx.info

Track history (hours):
 
Tides and Currents Weather Stations Pressure Air Temp Water Temp Dewpoint Dewpoint Depression Visibility Wind Speed Wind Dir Waves Ship Positions

Commodore Clipper

Operator: Condor Marine Services

Last reported at 2019-Mar-22 11:57 UTC. Time now 2019-Mar-22 12:03 UTC.
Position N 50°18' W 001°27'.

Length 130 m; draft 5.3 m.

Type: Ship. MMSI: 308094000.

Date/timePositionNaut miles runAvg speedWind from/ knotsBaromVisibWave heightAir tempDewpointWater temp
2019-Mar-22 11:57N 50°18' W 001°27'816.6
2019-Mar-22 11:29N 50°24' W 001°20'815.8
2019-Mar-22 11:00N 50°31' W 001°13'815.0
2019-Mar-22 10:30N 50°37' W 001°07'713.8
2019-Mar-22 10:00N 50°44' W 001°04'510.7
2019-Mar-22 09:30N 50°49' W 001°06'0 0.6
2019-Mar-22 09:00N 50°49' W 001°06'0 0.0
2019-Mar-22 08:30N 50°49' W 001°06'0 0.0
2019-Mar-22 08:00N 50°49' W 001°06'0 0.0
2019-Mar-22 07:30N 50°49' W 001°06'0 0.0
2019-Mar-22 07:00N 50°49' W 001°06'0 0.0
2019-Mar-22 06:30N 50°49' W 001°06'2 3.2
2019-Mar-22 06:00N 50°47' W 001°07'713.6
2019-Mar-22 05:30N 50°42' W 001°00'715.0
2019-Mar-22 05:01N 50°35' W 001°06'815.4
2019-Mar-22 04:30N 50°29' W 001°14'3214.3
2019-Mar-22 02:16N 50°04' W 001°45'513.4
2019-Mar-22 01:54N 50°01' W 001°50'813.9
2019-Mar-22 01:22N 49°54' W 001°55'913.6
2019-Mar-22 00:44N 49°47' W 002°03'313.1
2019-Mar-22 00:30N 49°44' W 002°05'612.7
2019-Mar-22 00:00N 49°38' W 002°07'815.5
2019-Mar-21 23:30N 49°31' W 002°12'816.8
2019-Mar-21 23:01N 49°23' W 002°16'916.7
2019-Mar-21 22:28N 49°15' W 002°20'6 1.8
2019-Mar-21 19:00N 49°10' W 002°14'815.5
2019-Mar-21 18:31N 49°15' W 002°23'816.5
2019-Mar-21 18:00N 49°23' W 002°28'510.3
2019-Mar-21 17:30N 49°27' W 002°32'0 0.0
2019-Mar-21 17:00N 49°27' W 002°32'0 0.0
2019-Mar-21 16:29N 49°27' W 002°32'0 0.0
2019-Mar-21 16:00N 49°27' W 002°32'3 5.7
2019-Mar-21 15:30N 49°25' W 002°28'815.2
2019-Mar-21 15:00N 49°30' W 002°19'1418.1
2019-Mar-21 14:15N 49°40' W 002°04'522.0
2019-Mar-21 14:00N 49°45' W 002°01'1120.2
2019-Mar-21 13:28N 49°54' W 001°52'919.1
2019-Mar-21 13:00N 50°01' W 001°45'2918.1
2019-Mar-21 11:23N 50°26' W 001°19'616.9
2019-Mar-21 11:00N 50°31' W 001°14'816.5
2019-Mar-21 10:30N 50°38' W 001°07'714.2
2019-Mar-21 10:01N 50°45' W 001°05'4 8.0
2019-Mar-21 09:30N 50°49' W 001°06'0 0.0
2019-Mar-21 09:00N 50°49' W 001°06'0 0.0
2019-Mar-21 08:30N 50°49' W 001°06'0 0.0
2019-Mar-21 08:00N 50°49' W 001°06'0 0.0
2019-Mar-21 07:30N 50°49' W 001°06'0 0.0
2019-Mar-21 07:00N 50°49' W 001°06'0 0.0
2019-Mar-21 06:30N 50°49' W 001°06'2 3.7
2019-Mar-21 06:00N 50°47' W 001°06'714.1
2019-Mar-21 05:30N 50°41' W 001°01'917.3
2019-Mar-21 05:00N 50°33' W 001°08'816.6
2019-Mar-21 04:30N 50°28' W 001°18'1315.8
2019-Mar-21 03:40N 50°18' W 001°31'1214.9
2019-Mar-21 02:53N 50°09' W 001°42'513.8
2019-Mar-21 02:31N 50°05' W 001°48'713.6
2019-Mar-21 02:00N 49°59' W 001°54'713.7
2019-Mar-21 01:30N 49°53' W 001°58'713.5
2019-Mar-21 01:00N 49°47' W 002°02'611.2
2019-Mar-21 00:30N 49°41' W 002°05'613.0
2019-Mar-21 00:01N 49°35' W 002°09'714.8
2019-Mar-20 23:31N 49°29' W 002°13'815.7
2019-Mar-20 23:01N 49°21' W 002°18'815.6
2019-Mar-20 22:30N 49°14' W 002°20'9 4.2
2019-Mar-20 20:21N 49°11' W 002°07'0 0.0
2019-Mar-20 19:37N 49°11' W 002°07'0 0.7
2019-Mar-20 19:28N 49°11' W 002°07'612.4
2019-Mar-20 19:00N 49°10' W 002°16'715.0
2019-Mar-20 18:31N 49°16' W 002°23'816.0
2019-Mar-20 18:00N 49°23' W 002°27'5 9.9
2019-Mar-20 17:30N 49°27' W 002°32'0 0.0
2019-Mar-20 17:00N 49°27' W 002°32'0 0.0
2019-Mar-20 16:30N 49°27' W 002°32'0 0.0
2019-Mar-20 16:00N 49°27' W 002°32'3 6.0
2019-Mar-20 15:30N 49°25' W 002°28'815.6
2019-Mar-20 15:00N 49°30' W 002°18'713.9
2019-Mar-20 14:30N 49°34' W 002°10'918.6
2019-Mar-20 14:00N 49°42' W 002°02'1220.4
2019-Mar-20 13:25N 49°51' W 001°50'819.5
2019-Mar-20 13:00N 49°57' W 001°42'918.6
2019-Mar-20 12:30N 50°05' W 001°34'2117.3
2019-Mar-20 11:17N 50°25' W 001°22'517.0
2019-Mar-20 11:00N 50°29' W 001°18'917.8
2019-Mar-20 10:30N 50°36' W 001°09'816.4
2019-Mar-20 10:00N 50°43' W 001°03'612.7
2019-Mar-20 09:31N 50°49' W 001°07'1 1.4
2019-Mar-20 09:01N 50°49' W 001°06'0 0.0
2019-Mar-20 08:30N 50°49' W 001°06'0 0.0
2019-Mar-20 08:01N 50°49' W 001°06'0 0.0
2019-Mar-20 07:31N 50°49' W 001°06'0 0.0
2019-Mar-20 07:00N 50°49' W 001°06'0 0.0
2019-Mar-20 06:30N 50°49' W 001°06'1 2.5
2019-Mar-20 06:01N 50°48' W 001°07'713.1
2019-Mar-20 05:30N 50°42' W 001°01'816.8
2019-Mar-20 05:00N 50°35' W 001°07'918.0
2019-Mar-20 04:30N 50°27' W 001°15'2016.7
2019-Mar-20 03:18N 50°11' W 001°35'815.1
2019-Mar-20 02:44N 50°06' W 001°44'414.8
2019-Mar-20 02:28N 50°03' W 001°49'714.7
2019-Mar-20 02:00N 49°57' W 001°54'714.4
2019-Mar-20 01:31N 49°51' W 001°59'713.6
2019-Mar-20 01:00N 49°44' W 002°03'611.4
2019-Mar-20 00:31N 49°39' W 002°05'713.5
2019-Mar-20 00:01N 49°33' W 002°11'714.9
2019-Mar-19 23:31N 49°29' W 002°21'713.2
2019-Mar-19 23:01N 49°26' W 002°29'2 4.5
2019-Mar-19 22:31N 49°27' W 002°32'0 0.0
2019-Mar-19 22:00N 49°27' W 002°32'0 0.0
2019-Mar-19 21:30N 49°27' W 002°32'0 0.7
2019-Mar-19 21:00N 49°27' W 002°31'815.6
2019-Mar-19 20:30N 49°20' W 002°26'1018.2
2019-Mar-19 19:58N 49°12' W 002°19'8 2.5
2019-Mar-19 16:52N 49°11' W 002°07'410.6
2019-Mar-19 16:28N 49°10' W 002°13'613.0
2019-Mar-19 16:01N 49°14' W 002°19'713.0
2019-Mar-19 15:31N 49°21' W 002°18'611.1
2019-Mar-19 15:00N 49°26' W 002°14'815.5
2019-Mar-19 14:30N 49°33' W 002°09'917.4
2019-Mar-19 13:59N 49°41' W 002°04'918.3
2019-Mar-19 13:30N 49°49' W 001°59'918.2
2019-Mar-19 13:00N 49°57' W 001°52'1218.3
2019-Mar-19 12:22N 50°07' W 001°42'1817.5
2019-Mar-19 11:21N 50°21' W 001°25'717.6
2019-Mar-19 10:58N 50°27' W 001°19'818.2
2019-Mar-19 10:31N 50°33' W 001°11'918.0
2019-Mar-19 10:00N 50°41' W 001°03'714.0
2019-Mar-19 09:30N 50°47' W 001°07'2 3.1
2019-Mar-19 09:00N 50°49' W 001°06'0 0.0
2019-Mar-19 08:30N 50°49' W 001°06'0 0.0
2019-Mar-19 08:00N 50°49' W 001°06'0 0.0
2019-Mar-19 07:30N 50°49' W 001°06'0 0.0
2019-Mar-19 07:00N 50°49' W 001°06'0 0.0
2019-Mar-19 06:30N 50°49' W 001°06'2 3.1
2019-Mar-19 06:00N 50°47' W 001°07'713.1
2019-Mar-19 05:31N 50°42' W 001°01'815.1
2019-Mar-19 05:00N 50°35' W 001°06'815.7
2019-Mar-19 04:30N 50°29' W 001°13'3114.6
2019-Mar-19 02:24N 50°04' W 001°41'615.5
2019-Mar-19 02:00N 49°59' W 001°46'714.8
2019-Mar-19 01:31N 49°53' W 001°53'714.3
2019-Mar-19 01:01N 49°47' W 002°00'612.8
2019-Mar-19 00:30N 49°42' W 002°05'713.2
2019-Mar-19 00:00N 49°36' W 002°09'714.2
2019-Mar-18 23:30N 49°31' W 002°17'714.4
2019-Mar-18 23:00N 49°26' W 002°26'4 8.1
2019-Mar-18 22:30N 49°27' W 002°32'0 0.0
2019-Mar-18 22:00N 49°27' W 002°32'0 0.0
2019-Mar-18 21:30N 49°27' W 002°32'0 0.0
2019-Mar-18 21:00N 49°27' W 002°32'510.9
2019-Mar-18 20:30N 49°23' W 002°28'917.2
2019-Mar-18 20:00N 49°14' W 002°24'12 3.7
2019-Mar-18 16:54N 49°11' W 002°07'510.3
2019-Mar-18 16:27N 49°10' W 002°14'613.8
2019-Mar-18 16:00N 49°13' W 002°22'713.9
2019-Mar-18 15:30N 49°20' W 002°18'713.2
2019-Mar-18 15:00N 49°26' W 002°14'714.3
2019-Mar-18 14:30N 49°32' W 002°09'816.0
2019-Mar-18 14:00N 49°40' W 002°05'917.5
2019-Mar-18 13:31N 49°48' W 002°01'917.7
2019-Mar-18 13:01N 49°57' W 001°57'917.3
2019-Mar-18 12:31N 50°03' W 001°49'918.5
2019-Mar-18 12:00N 50°10' W 001°37'1617.7
2019-Mar-18 11:05N 50°23' W 001°24'117.7
2019-Mar-18 11:00N 50°24' W 001°22'917.8
2019-Mar-18 10:31N 50°31' W 001°14'918.4
2019-Mar-18 10:00N 50°39' W 001°05'714.2
2019-Mar-18 09:30N 50°46' W 001°05'3 5.8
2019-Mar-18 09:00N 50°49' W 001°06'0 0.0
2019-Mar-18 08:30N 50°49' W 001°06'0 0.0
2019-Mar-18 08:00N 50°49' W 001°06'0 0.0
2019-Mar-18 07:30N 50°49' W 001°06'0 0.0
2019-Mar-18 07:00N 50°49' W 001°06'0 0.0
2019-Mar-18 06:30N 50°49' W 001°06'0 0.0
2019-Mar-18 06:00N 50°49' W 001°06'0 0.0
2019-Mar-18 05:30N 50°49' W 001°06'0 0.0
2019-Mar-18 05:00N 50°49' W 001°06'0 0.0
2019-Mar-18 04:30N 50°49' W 001°06'0 0.0
2019-Mar-18 04:00N 50°49' W 001°06'0 0.0
2019-Mar-18 03:30N 50°49' W 001°06'0 0.0
2019-Mar-18 03:00N 50°49' W 001°06'0 0.0
2019-Mar-18 02:30N 50°49' W 001°06'0 0.0
2019-Mar-18 02:00N 50°49' W 001°06'0 0.0
2019-Mar-18 01:30N 50°49' W 001°06'0 0.0
2019-Mar-18 01:00N 50°49' W 001°06'0 0.0
2019-Mar-18 00:30N 50°49' W 001°06'0 0.0
2019-Mar-18 00:00N 50°49' W 001°06'0 0.0
2019-Mar-17 23:30N 50°49' W 001°06'0 0.0
2019-Mar-17 23:00N 50°49' W 001°06'0 0.0
2019-Mar-17 22:30N 50°49' W 001°06'0 0.0
2019-Mar-17 22:00N 50°49' W 001°06'0 0.0
2019-Mar-17 21:30N 50°49' W 001°06'0 0.0
2019-Mar-17 21:00N 50°49' W 001°06'0 0.0
2019-Mar-17 20:30N 50°49' W 001°06'0 0.0
2019-Mar-17 20:00N 50°49' W 001°06'0 0.0
2019-Mar-17 19:30N 50°49' W 001°06'0 0.0
2019-Mar-17 19:00N 50°49' W 001°06'0 0.0
2019-Mar-17 18:30N 50°49' W 001°06'0 0.0
2019-Mar-17 18:00N 50°49' W 001°06'0 0.0
2019-Mar-17 17:30N 50°49' W 001°06'0 0.0
2019-Mar-17 17:00N 50°49' W 001°06'0 0.0
2019-Mar-17 16:30N 50°49' W 001°06'0 0.0
2019-Mar-17 16:00N 50°49' W 001°06'0 0.0
2019-Mar-17 15:30N 50°49' W 001°06'0 0.0
2019-Mar-17 15:00N 50°49' W 001°06'0 0.0
2019-Mar-17 14:30N 50°49' W 001°06'0 0.0
2019-Mar-17 14:00N 50°49' W 001°06'0 0.0
2019-Mar-17 13:30N 50°49' W 001°06'0 0.0
2019-Mar-17 13:00N 50°49' W 001°06'0 0.0
2019-Mar-17 12:30N 50°49' W 001°06'0 0.0
2019-Mar-17 12:00N 50°49' W 001°06'0 0.0
2019-Mar-17 11:30N 50°49' W 001°06'0 0.0
2019-Mar-17 11:00N 50°49' W 001°06'0 0.0
2019-Mar-17 10:30N 50°49' W 001°06'0 0.0
2019-Mar-17 10:00N 50°49' W 001°06'0 0.0
2019-Mar-17 09:30N 50°49' W 001°06'0 0.0
2019-Mar-17 09:00N 50°49' W 001°06'0 0.0
2019-Mar-17 08:30N 50°49' W 001°06'0 0.0
2019-Mar-17 08:00N 50°49' W 001°06'0 0.0
2019-Mar-17 07:30N 50°49' W 001°06'0 0.0
2019-Mar-17 07:00N 50°49' W 001°06'0 0.0
2019-Mar-17 06:30N 50°49' W 001°06'0 0.0
2019-Mar-17 06:00N 50°49' W 001°06'0 0.0
2019-Mar-17 05:30N 50°49' W 001°06'0 0.0
2019-Mar-17 05:00N 50°49' W 001°06'0 0.0
2019-Mar-17 04:30N 50°49' W 001°06'0 0.0
2019-Mar-17 04:00N 50°49' W 001°06'0 0.0
2019-Mar-17 03:30N 50°49' W 001°06'0 0.0
2019-Mar-17 03:00N 50°49' W 001°06'0 0.0
2019-Mar-17 02:30N 50°49' W 001°06'0 0.0
2019-Mar-17 02:00N 50°49' W 001°06'0 0.0
2019-Mar-17 01:30N 50°49' W 001°06'0 0.0
2019-Mar-17 01:00N 50°49' W 001°06'0 0.0
2019-Mar-17 00:30N 50°49' W 001°06'0 0.0
2019-Mar-17 00:00N 50°49' W 001°06'0 0.0
2019-Mar-16 23:30N 50°49' W 001°06'0 0.0
2019-Mar-16 23:00N 50°49' W 001°06'0 0.0
2019-Mar-16 22:30N 50°49' W 001°06'0 0.0
2019-Mar-16 22:00N 50°49' W 001°06'0 0.0
2019-Mar-16 21:30N 50°49' W 001°06'0 0.0
2019-Mar-16 21:00N 50°49' W 001°06'0 0.0
2019-Mar-16 20:30N 50°49' W 001°06'0 0.0
2019-Mar-16 20:00N 50°49' W 001°06'0 0.0
2019-Mar-16 19:30N 50°49' W 001°06'0 0.0
2019-Mar-16 19:00N 50°49' W 001°06'0 0.0
2019-Mar-16 18:30N 50°49' W 001°06'0 0.0
2019-Mar-16 18:00N 50°49' W 001°06'0 0.0
2019-Mar-16 17:30N 50°49' W 001°06'0 0.0
2019-Mar-16 17:00N 50°49' W 001°06'0 0.0
2019-Mar-16 16:30N 50°49' W 001°06'0 0.0
2019-Mar-16 16:00N 50°49' W 001°06'0 0.0
2019-Mar-16 15:30N 50°49' W 001°06'0 0.0
2019-Mar-16 15:00N 50°49' W 001°06'0 0.0
2019-Mar-16 14:30N 50°49' W 001°06'0 0.0
2019-Mar-16 14:00N 50°49' W 001°06'0 0.0
2019-Mar-16 13:30N 50°49' W 001°06'0 0.0
2019-Mar-16 13:00N 50°49' W 001°06'0 0.0
2019-Mar-16 12:30N 50°49' W 001°06'0 0.0
2019-Mar-16 12:00N 50°49' W 001°06'0 0.0
2019-Mar-16 11:30N 50°49' W 001°06'0 0.0
2019-Mar-16 11:00N 50°49' W 001°06'0 0.0
2019-Mar-16 10:30N 50°49' W 001°06'0 0.0
2019-Mar-16 10:00N 50°49' W 001°06'0 0.2
2019-Mar-16 09:31N 50°49' W 001°06'3 5.1
2019-Mar-16 09:01N 50°46' W 001°06'612.0
2019-Mar-16 08:31N 50°40' W 001°04'714.0
2019-Mar-16 08:01N 50°34' W 001°10'713.6
2019-Mar-16 07:30N 50°29' W 001°17'1013.5
2019-Mar-16 06:46N 50°21' W 001°25'313.3
2019-Mar-16 06:30N 50°18' W 001°28'1314.0
2019-Mar-16 05:33N 50°06' W 001°39'115.4
2019-Mar-16 05:27N 50°05' W 001°40'817.1
2019-Mar-16 05:00N 49°59' W 001°47'917.6
2019-Mar-16 04:31N 49°52' W 001°55'918.6
2019-Mar-16 04:01N 49°44' W 002°03'918.4
2019-Mar-16 03:31N 49°36' W 002°09'918.1
2019-Mar-16 03:00N 49°27' W 002°14'917.8
2019-Mar-16 02:31N 49°19' W 002°20'714.5
2019-Mar-16 02:01N 49°12' W 002°20'814.8
2019-Mar-16 01:30N 49°10' W 002°09'1 0.8
2019-Mar-15 23:44N 49°11' W 002°07'3 2.6
2019-Mar-15 22:37N 49°10' W 002°11'217.7
2019-Mar-15 22:30N 49°10' W 002°14'917.1
2019-Mar-15 22:01N 49°14' W 002°26'714.3
2019-Mar-15 21:31N 49°21' W 002°28'714.1
2019-Mar-15 21:01N 49°27' W 002°32'0 0.0
2019-Mar-15 20:30N 49°27' W 002°32'0 0.0
2019-Mar-15 20:01N 49°27' W 002°32'0 0.0
2019-Mar-15 19:31N 49°27' W 002°32'0 0.2
2019-Mar-15 19:00N 49°27' W 002°32'510.4
2019-Mar-15 18:30N 49°27' W 002°24'815.8
2019-Mar-15 18:01N 49°32' W 002°14'713.8
2019-Mar-15 17:30N 49°37' W 002°07'714.7
2019-Mar-15 17:00N 49°44' W 002°01'714.6
2019-Mar-15 16:30N 49°46' W 001°51'713.3
2019-Mar-15 16:01N 49°47' W 001°41'612.8
2019-Mar-15 15:30N 49°50' W 001°31'611.7
2019-Mar-15 15:00N 49°53' W 001°24'3310.0
2019-Mar-15 11:40N 50°25' W 001°08'212.4
2019-Mar-15 11:29N 50°27' W 001°08'611.7
2019-Mar-15 11:00N 50°32' W 001°07'612.0
2019-Mar-15 10:30N 50°38' W 001°02'713.6
2019-Mar-15 10:01N 50°44' W 001°04'5 9.3
2019-Mar-15 09:30N 50°49' W 001°06'0 0.0
2019-Mar-15 09:01N 50°49' W 001°06'0 0.0
2019-Mar-15 08:30N 50°49' W 001°06'0 0.0
2019-Mar-15 08:00N 50°49' W 001°06'0 0.0
2019-Mar-15 07:31N 50°49' W 001°06'0 0.0
2019-Mar-15 07:00N 50°49' W 001°06'0 0.0
2019-Mar-15 06:30N 50°49' W 001°06'0 0.0
2019-Mar-15 06:01N 50°49' W 001°06'0 0.0
2019-Mar-15 05:30N 50°49' W 001°06'0 0.0
2019-Mar-15 05:00N 50°49' W 001°06'0 0.0
2019-Mar-15 04:30N 50°49' W 001°06'0 0.0
2019-Mar-15 04:01N 50°49' W 001°06'0 0.0
2019-Mar-15 03:30N 50°49' W 001°06'0 0.0
2019-Mar-15 03:00N 50°49' W 001°06'0 0.0
2019-Mar-15 02:31N 50°49' W 001°06'0 0.0
2019-Mar-15 02:00N 50°49' W 001°06'0 0.0
2019-Mar-15 01:30N 50°49' W 001°06'0 0.0
2019-Mar-15 01:01N 50°49' W 001°06'0 0.0
2019-Mar-15 00:30N 50°49' W 001°06'0 0.0
2019-Mar-15 00:00N 50°49' W 001°06'0 0.0
2019-Mar-14 23:30N 50°49' W 001°06'0 0.0
2019-Mar-14 23:00N 50°49' W 001°06'0 0.0
2019-Mar-14 22:30N 50°49' W 001°06'0 0.0
2019-Mar-14 22:01N 50°49' W 001°06'0 0.0
2019-Mar-14 21:31N 50°49' W 001°06'0 0.0
2019-Mar-14 21:00N 50°49' W 001°06'0 0.0
2019-Mar-14 20:30N 50°49' W 001°06'0 0.0
2019-Mar-14 20:00N 50°49' W 001°06'0 0.0
2019-Mar-14 19:31N 50°49' W 001°06'0 0.0
2019-Mar-14 19:00N 50°49' W 001°06'0 0.0
2019-Mar-14 18:30N 50°49' W 001°06'0 0.0
2019-Mar-14 18:00N 50°49' W 001°06'0 0.0
2019-Mar-14 17:31N 50°49' W 001°06'0 0.0
2019-Mar-14 17:00N 50°49' W 001°06'0 0.0
2019-Mar-14 16:31N 50°49' W 001°06'0 0.0
2019-Mar-14 16:00N 50°49' W 001°06'0 0.0
2019-Mar-14 15:31N 50°49' W 001°06'0 0.0
2019-Mar-14 15:00N 50°49' W 001°06'0 0.0
2019-Mar-14 14:31N 50°49' W 001°06'0 0.0
2019-Mar-14 14:00N 50°49' W 001°06'0 0.0
2019-Mar-14 13:31N 50°49' W 001°06'0 0.0
2019-Mar-14 13:00N 50°49' W 001°06'0 0.0
2019-Mar-14 12:30N 50°49' W 001°06'0 0.0
2019-Mar-14 12:01N 50°49' W 001°06'0 0.0
2019-Mar-14 11:30N 50°49' W 001°06'0 0.0
2019-Mar-14 11:00N 50°49' W 001°06'0 0.0
2019-Mar-14 10:30N 50°49' W 001°06'0 0.0
2019-Mar-14 10:00N 50°49' W 001°06'0 0.0
2019-Mar-14 09:31N 50°49' W 001°06'1 1.4
2019-Mar-14 09:00N 50°49' W 001°07'4 8.8
2019-Mar-14 08:31N 50°44' W 001°04'4 7.8
2019-Mar-14 08:00N 50°41' W 001°03'714.4
2019-Mar-14 07:30N 50°34' W 001°09'714.1
2019-Mar-14 07:00N 50°28' W 001°15'2914.7
2019-Mar-14 05:04N 50°05' W 001°41'114.8
2019-Mar-14 04:58N 50°04' W 001°42'715.1
2019-Mar-14 04:31N 49°58' W 001°48'815.7
2019-Mar-14 04:01N 49°52' W 001°55'816.2
2019-Mar-14 03:31N 49°45' W 002°02'815.7
2019-Mar-14 03:01N 49°37' W 002°05'816.6
2019-Mar-14 02:31N 49°30' W 002°10'817.0
2019-Mar-14 02:01N 49°23' W 002°17'714.6
2019-Mar-14 01:31N 49°17' W 002°24'713.5
2019-Mar-14 01:01N 49°11' W 002°18'5 1.5
2019-Mar-13 21:47N 49°10' W 002°11'415.5
2019-Mar-13 21:30N 49°11' W 002°17'715.0
2019-Mar-13 21:00N 49°18' W 002°23'816.8
2019-Mar-13 20:31N 49°25' W 002°29'3 6.2
2019-Mar-13 20:01N 49°27' W 002°32'0 0.0
2019-Mar-13 19:31N 49°27' W 002°32'0 0.0
2019-Mar-13 19:01N 49°27' W 002°32'0 0.0
2019-Mar-13 18:30N 49°27' W 002°32'0 0.0
2019-Mar-13 18:00N 49°27' W 002°32'1 1.5
2019-Mar-13 17:31N 49°27' W 002°31'611.4
2019-Mar-13 17:01N 49°28' W 002°22'816.1
2019-Mar-13 16:30N 49°32' W 002°11'816.5
2019-Mar-13 16:00N 49°39' W 002°05'918.0
2019-Mar-13 15:31N 49°46' W 001°56'815.5
2019-Mar-13 15:00N 49°50' W 001°46'714.1
2019-Mar-13 14:31N 49°54' W 001°37'713.3
2019-Mar-13 14:00N 49°58' W 001°28'2613.0
2019-Mar-13 11:59N 50°23' W 001°15'612.5
2019-Mar-13 11:29N 50°29' W 001°11'612.2
2019-Mar-13 11:01N 50°34' W 001°06'713.7
2019-Mar-13 10:31N 50°40' W 001°01'714.9
2019-Mar-13 10:00N 50°46' W 001°06'2 4.5
2019-Mar-13 09:30N 50°49' W 001°06'0 0.0
2019-Mar-13 09:00N 50°49' W 001°06'0 0.0
2019-Mar-13 08:30N 50°49' W 001°06'0 0.0
2019-Mar-13 08:00N 50°49' W 001°06'0 0.0
2019-Mar-13 07:30N 50°49' W 001°06'0 0.0
2019-Mar-13 07:00N 50°49' W 001°06'0 0.6
2019-Mar-13 06:31N 50°49' W 001°06'5 9.6
2019-Mar-13 06:01N 50°44' W 001°04'713.8
2019-Mar-13 05:30N 50°37' W 001°06'713.9
2019-Mar-13 05:00N 50°31' W 001°09'714.5
2019-Mar-13 04:30N 50°25' W 001°16'2415.0
2019-Mar-13 02:54N 50°06' W 001°40'1416.2
2019-Mar-13 02:01N 49°54' W 001°51'917.4
2019-Mar-13 01:30N 49°47' W 001°59'816.1
2019-Mar-13 01:01N 49°39' W 002°03'816.2
2019-Mar-13 00:31N 49°33' W 002°11'917.7
2019-Mar-13 00:01N 49°24' W 002°16'815.2
2019-Mar-12 23:31N 49°20' W 002°25'612.0
2019-Mar-12 23:01N 49°14' W 002°21'510.2
2019-Mar-12 22:29N 49°10' W 002°16'2 0.5
2019-Mar-12 19:15N 49°10' W 002°13'415.9
2019-Mar-12 19:00N 49°11' W 002°19'612.9
2019-Mar-12 18:30N 49°14' W 002°28'611.1
2019-Mar-12 18:01N 49°18' W 002°22'714.4
2019-Mar-12 17:31N 49°24' W 002°16'917.7
2019-Mar-12 17:01N 49°33' W 002°11'918.3
2019-Mar-12 16:31N 49°41' W 002°06'918.6
2019-Mar-12 16:01N 49°48' W 001°57'816.6
2019-Mar-12 15:31N 49°54' W 001°48'815.8
2019-Mar-12 15:00N 49°59' W 001°39'2910.8
2019-Mar-12 12:22N 50°22' W 001°12'3 8.5
2019-Mar-12 11:59N 50°25' W 001°11'  
Track history (hours):
 
Tides and Currents Weather Stations Pressure Air Temp Water Temp Dewpoint Dewpoint Depression Visibility Wind Speed Wind Dir Waves Ship Positions

Commodore Clipper

Operator: Condor Marine Services

Last reported at 2019-Mar-22 11:57 UTC. Time now 2019-Mar-22 12:03 UTC.
Position N 50°18' W 001°27'.

Length 130 m; draft 5.3 m.

Type: Ship. MMSI: 308094000.

Date/timePositionNaut miles runAvg speedWind from/ knotsBaromVisibWave heightAir tempDewpointWater temp
2019-Mar-22 11:57N 50°18' W 001°27'816.6
2019-Mar-22 11:29N 50°24' W 001°20'815.8
2019-Mar-22 11:00N 50°31' W 001°13'815.0
2019-Mar-22 10:30N 50°37' W 001°07'713.8
2019-Mar-22 10:00N 50°44' W 001°04'510.7
2019-Mar-22 09:30N 50°49' W 001°06'0 0.6
2019-Mar-22 09:00N 50°49' W 001°06'0 0.0
2019-Mar-22 08:30N 50°49' W 001°06'0 0.0
2019-Mar-22 08:00N 50°49' W 001°06'0 0.0
2019-Mar-22 07:30N 50°49' W 001°06'0 0.0
2019-Mar-22 07:00N 50°49' W 001°06'0 0.0
2019-Mar-22 06:30N 50°49' W 001°06'2 3.2
2019-Mar-22 06:00N 50°47' W 001°07'713.6
2019-Mar-22 05:30N 50°42' W 001°00'715.0
2019-Mar-22 05:01N 50°35' W 001°06'815.4
2019-Mar-22 04:30N 50°29' W 001°14'3214.3
2019-Mar-22 02:16N 50°04' W 001°45'513.4
2019-Mar-22 01:54N 50°01' W 001°50'813.9
2019-Mar-22 01:22N 49°54' W 001°55'913.6
2019-Mar-22 00:44N 49°47' W 002°03'313.1
2019-Mar-22 00:30N 49°44' W 002°05'612.7
2019-Mar-22 00:00N 49°38' W 002°07'815.5
2019-Mar-21 23:30N 49°31' W 002°12'816.8
2019-Mar-21 23:01N 49°23' W 002°16'916.7
2019-Mar-21 22:28N 49°15' W 002°20'6 1.8
2019-Mar-21 19:00N 49°10' W 002°14'815.5
2019-Mar-21 18:31N 49°15' W 002°23'816.5
2019-Mar-21 18:00N 49°23' W 002°28'510.3
2019-Mar-21 17:30N 49°27' W 002°32'0 0.0
2019-Mar-21 17:00N 49°27' W 002°32'0 0.0
2019-Mar-21 16:29N 49°27' W 002°32'0 0.0
2019-Mar-21 16:00N 49°27' W 002°32'3 5.7
2019-Mar-21 15:30N 49°25' W 002°28'815.2
2019-Mar-21 15:00N 49°30' W 002°19'1418.1
2019-Mar-21 14:15N 49°40' W 002°04'522.0
2019-Mar-21 14:00N 49°45' W 002°01'1120.2
2019-Mar-21 13:28N 49°54' W 001°52'919.1
2019-Mar-21 13:00N 50°01' W 001°45'2918.1
2019-Mar-21 11:23N 50°26' W 001°19'616.9
2019-Mar-21 11:00N 50°31' W 001°14'816.5
2019-Mar-21 10:30N 50°38' W 001°07'714.2
2019-Mar-21 10:01N 50°45' W 001°05'4 8.0
2019-Mar-21 09:30N 50°49' W 001°06'0 0.0
2019-Mar-21 09:00N 50°49' W 001°06'0 0.0
2019-Mar-21 08:30N 50°49' W 001°06'0 0.0
2019-Mar-21 08:00N 50°49' W 001°06'0 0.0
2019-Mar-21 07:30N 50°49' W 001°06'0 0.0
2019-Mar-21 07:00N 50°49' W 001°06'0 0.0
2019-Mar-21 06:30N 50°49' W 001°06'2 3.7
2019-Mar-21 06:00N 50°47' W 001°06'714.1
2019-Mar-21 05:30N 50°41' W 001°01'917.3
2019-Mar-21 05:00N 50°33' W 001°08'816.6
2019-Mar-21 04:30N 50°28' W 001°18'1315.8
2019-Mar-21 03:40N 50°18' W 001°31'1214.9
2019-Mar-21 02:53N 50°09' W 001°42'513.8
2019-Mar-21 02:31N 50°05' W 001°48'713.6
2019-Mar-21 02:00N 49°59' W 001°54'713.7
2019-Mar-21 01:30N 49°53' W 001°58'713.5
2019-Mar-21 01:00N 49°47' W 002°02'611.2
2019-Mar-21 00:30N 49°41' W 002°05'613.0
2019-Mar-21 00:01N 49°35' W 002°09'714.8
2019-Mar-20 23:31N 49°29' W 002°13'815.7
2019-Mar-20 23:01N 49°21' W 002°18'815.6
2019-Mar-20 22:30N 49°14' W 002°20'9 4.2
2019-Mar-20 20:21N 49°11' W 002°07'0 0.0
2019-Mar-20 19:37N 49°11' W 002°07'0 0.7
2019-Mar-20 19:28N 49°11' W 002°07'612.4
2019-Mar-20 19:00N 49°10' W 002°16'715.0
2019-Mar-20 18:31N 49°16' W 002°23'816.0
2019-Mar-20 18:00N 49°23' W 002°27'5 9.9
2019-Mar-20 17:30N 49°27' W 002°32'0 0.0
2019-Mar-20 17:00N 49°27' W 002°32'0 0.0
2019-Mar-20 16:30N 49°27' W 002°32'0 0.0
2019-Mar-20 16:00N 49°27' W 002°32'3 6.0
2019-Mar-20 15:30N 49°25' W 002°28'815.6
2019-Mar-20 15:00N 49°30' W 002°18'713.9
2019-Mar-20 14:30N 49°34' W 002°10'918.6
2019-Mar-20 14:00N 49°42' W 002°02'1220.4
2019-Mar-20 13:25N 49°51' W 001°50'819.5
2019-Mar-20 13:00N 49°57' W 001°42'918.6
2019-Mar-20 12:30N 50°05' W 001°34'2117.3
2019-Mar-20 11:17N 50°25' W 001°22'517.0
2019-Mar-20 11:00N 50°29' W 001°18'917.8
2019-Mar-20 10:30N 50°36' W 001°09'816.4
2019-Mar-20 10:00N 50°43' W 001°03'612.7
2019-Mar-20 09:31N 50°49' W 001°07'1 1.4
2019-Mar-20 09:01N 50°49' W 001°06'0 0.0
2019-Mar-20 08:30N 50°49' W 001°06'0 0.0
2019-Mar-20 08:01N 50°49' W 001°06'0 0.0
2019-Mar-20 07:31N 50°49' W 001°06'0 0.0
2019-Mar-20 07:00N 50°49' W 001°06'0 0.0
2019-Mar-20 06:30N 50°49' W 001°06'1 2.5
2019-Mar-20 06:01N 50°48' W 001°07'713.1
2019-Mar-20 05:30N 50°42' W 001°01'816.8
2019-Mar-20 05:00N 50°35' W 001°07'918.0
2019-Mar-20 04:30N 50°27' W 001°15'2016.7
2019-Mar-20 03:18N 50°11' W 001°35'815.1
2019-Mar-20 02:44N 50°06' W 001°44'414.8
2019-Mar-20 02:28N 50°03' W 001°49'714.7
2019-Mar-20 02:00N 49°57' W 001°54'714.4
2019-Mar-20 01:31N 49°51' W 001°59'713.6
2019-Mar-20 01:00N 49°44' W 002°03'611.4
2019-Mar-20 00:31N 49°39' W 002°05'713.5
2019-Mar-20 00:01N 49°33' W 002°11'714.9
2019-Mar-19 23:31N 49°29' W 002°21'713.2
2019-Mar-19 23:01N 49°26' W 002°29'2 4.5
2019-Mar-19 22:31N 49°27' W 002°32'0 0.0
2019-Mar-19 22:00N 49°27' W 002°32'0 0.0
2019-Mar-19 21:30N 49°27' W 002°32'0 0.7
2019-Mar-19 21:00N 49°27' W 002°31'815.6
2019-Mar-19 20:30N 49°20' W 002°26'1018.2
2019-Mar-19 19:58N 49°12' W 002°19'8 2.5
2019-Mar-19 16:52N 49°11' W 002°07'410.6
2019-Mar-19 16:28N 49°10' W 002°13'613.0
2019-Mar-19 16:01N 49°14' W 002°19'713.0
2019-Mar-19 15:31N 49°21' W 002°18'611.1
2019-Mar-19 15:00N 49°26' W 002°14'815.5
2019-Mar-19 14:30N 49°33' W 002°09'917.4
2019-Mar-19 13:59N 49°41' W 002°04'918.3
2019-Mar-19 13:30N 49°49' W 001°59'918.2
2019-Mar-19 13:00N 49°57' W 001°52'1218.3
2019-Mar-19 12:22N 50°07' W 001°42'1817.5
2019-Mar-19 11:21N 50°21' W 001°25'717.6
2019-Mar-19 10:58N 50°27' W 001°19'818.2
2019-Mar-19 10:31N 50°33' W 001°11'918.0
2019-Mar-19 10:00N 50°41' W 001°03'714.0
2019-Mar-19 09:30N 50°47' W 001°07'2 3.1
2019-Mar-19 09:00N 50°49' W 001°06'0 0.0
2019-Mar-19 08:30N 50°49' W 001°06'0 0.0
2019-Mar-19 08:00N 50°49' W 001°06'0 0.0
2019-Mar-19 07:30N 50°49' W 001°06'0 0.0
2019-Mar-19 07:00N 50°49' W 001°06'0 0.0
2019-Mar-19 06:30N 50°49' W 001°06'2 3.1
2019-Mar-19 06:00N 50°47' W 001°07'713.1
2019-Mar-19 05:31N 50°42' W 001°01'815.1
2019-Mar-19 05:00N 50°35' W 001°06'815.7
2019-Mar-19 04:30N 50°29' W 001°13'3114.6
2019-Mar-19 02:24N 50°04' W 001°41'615.5
2019-Mar-19 02:00N 49°59' W 001°46'714.8
2019-Mar-19 01:31N 49°53' W 001°53'714.3
2019-Mar-19 01:01N 49°47' W 002°00'612.8
2019-Mar-19 00:30N 49°42' W 002°05'713.2
2019-Mar-19 00:00N 49°36' W 002°09'714.2
2019-Mar-18 23:30N 49°31' W 002°17'714.4
2019-Mar-18 23:00N 49°26' W 002°26'4 8.1
2019-Mar-18 22:30N 49°27' W 002°32'0 0.0
2019-Mar-18 22:00N 49°27' W 002°32'0 0.0
2019-Mar-18 21:30N 49°27' W 002°32'0 0.0
2019-Mar-18 21:00N 49°27' W 002°32'510.9
2019-Mar-18 20:30N 49°23' W 002°28'917.2
2019-Mar-18 20:00N 49°14' W 002°24'12 3.7
2019-Mar-18 16:54N 49°11' W 002°07'510.3
2019-Mar-18 16:27N 49°10' W 002°14'613.8
2019-Mar-18 16:00N 49°13' W 002°22'713.9
2019-Mar-18 15:30N 49°20' W 002°18'713.2
2019-Mar-18 15:00N 49°26' W 002°14'714.3
2019-Mar-18 14:30N 49°32' W 002°09'816.0
2019-Mar-18 14:00N 49°40' W 002°05'917.5
2019-Mar-18 13:31N 49°48' W 002°01'917.7
2019-Mar-18 13:01N 49°57' W 001°57'917.3
2019-Mar-18 12:31N 50°03' W 001°49'918.5
2019-Mar-18 12:00N 50°10' W 001°37'1617.7
2019-Mar-18 11:05N 50°23' W 001°24'117.7
2019-Mar-18 11:00N 50°24' W 001°22'917.8
2019-Mar-18 10:31N 50°31' W 001°14'918.4
2019-Mar-18 10:00N 50°39' W 001°05'714.2
2019-Mar-18 09:30N 50°46' W 001°05'3 5.8
2019-Mar-18 09:00N 50°49' W 001°06'0 0.0
2019-Mar-18 08:30N 50°49' W 001°06'0 0.0
2019-Mar-18 08:00N 50°49' W 001°06'0 0.0
2019-Mar-18 07:30N 50°49' W 001°06'0 0.0
2019-Mar-18 07:00N 50°49' W 001°06'0 0.0
2019-Mar-18 06:30N 50°49' W 001°06'0 0.0
2019-Mar-18 06:00N 50°49' W 001°06'0 0.0
2019-Mar-18 05:30N 50°49' W 001°06'0 0.0
2019-Mar-18 05:00N 50°49' W 001°06'0 0.0
2019-Mar-18 04:30N 50°49' W 001°06'0 0.0
2019-Mar-18 04:00N 50°49' W 001°06'0 0.0
2019-Mar-18 03:30N 50°49' W 001°06'0 0.0
2019-Mar-18 03:00N 50°49' W 001°06'0 0.0
2019-Mar-18 02:30N 50°49' W 001°06'0 0.0
2019-Mar-18 02:00N 50°49' W 001°06'0 0.0
2019-Mar-18 01:30N 50°49' W 001°06'0 0.0
2019-Mar-18 01:00N 50°49' W 001°06'0 0.0
2019-Mar-18 00:30N 50°49' W 001°06'0 0.0
2019-Mar-18 00:00N 50°49' W 001°06'0 0.0
2019-Mar-17 23:30N 50°49' W 001°06'0 0.0
2019-Mar-17 23:00N 50°49' W 001°06'0 0.0
2019-Mar-17 22:30N 50°49' W 001°06'0 0.0
2019-Mar-17 22:00N 50°49' W 001°06'0 0.0
2019-Mar-17 21:30N 50°49' W 001°06'0 0.0
2019-Mar-17 21:00N 50°49' W 001°06'0 0.0
2019-Mar-17 20:30N 50°49' W 001°06'0 0.0
2019-Mar-17 20:00N 50°49' W 001°06'0 0.0
2019-Mar-17 19:30N 50°49' W 001°06'0 0.0
2019-Mar-17 19:00N 50°49' W 001°06'0 0.0
2019-Mar-17 18:30N 50°49' W 001°06'0 0.0
2019-Mar-17 18:00N 50°49' W 001°06'0 0.0
2019-Mar-17 17:30N 50°49' W 001°06'0 0.0
2019-Mar-17 17:00N 50°49' W 001°06'0 0.0
2019-Mar-17 16:30N 50°49' W 001°06'0 0.0
2019-Mar-17 16:00N 50°49' W 001°06'0 0.0
2019-Mar-17 15:30N 50°49' W 001°06'0 0.0
2019-Mar-17 15:00N 50°49' W 001°06'0 0.0
2019-Mar-17 14:30N 50°49' W 001°06'0 0.0
2019-Mar-17 14:00N 50°49' W 001°06'0 0.0
2019-Mar-17 13:30N 50°49' W 001°06'0 0.0
2019-Mar-17 13:00N 50°49' W 001°06'0 0.0
2019-Mar-17 12:30N 50°49' W 001°06'0 0.0
2019-Mar-17 12:00N 50°49' W 001°06'0 0.0
2019-Mar-17 11:30N 50°49' W 001°06'0 0.0
2019-Mar-17 11:00N 50°49' W 001°06'0 0.0
2019-Mar-17 10:30N 50°49' W 001°06'0 0.0
2019-Mar-17 10:00N 50°49' W 001°06'0 0.0
2019-Mar-17 09:30N 50°49' W 001°06'0 0.0
2019-Mar-17 09:00N 50°49' W 001°06'0 0.0
2019-Mar-17 08:30N 50°49' W 001°06'0 0.0
2019-Mar-17 08:00N 50°49' W 001°06'0 0.0
2019-Mar-17 07:30N 50°49' W 001°06'0 0.0
2019-Mar-17 07:00N 50°49' W 001°06'0 0.0
2019-Mar-17 06:30N 50°49' W 001°06'0 0.0
2019-Mar-17 06:00N 50°49' W 001°06'0 0.0
2019-Mar-17 05:30N 50°49' W 001°06'0 0.0
2019-Mar-17 05:00N 50°49' W 001°06'0 0.0
2019-Mar-17 04:30N 50°49' W 001°06'0 0.0
2019-Mar-17 04:00N 50°49' W 001°06'0 0.0
2019-Mar-17 03:30N 50°49' W 001°06'0 0.0
2019-Mar-17 03:00N 50°49' W 001°06'0 0.0
2019-Mar-17 02:30N 50°49' W 001°06'0 0.0
2019-Mar-17 02:00N 50°49' W 001°06'0 0.0
2019-Mar-17 01:30N 50°49' W 001°06'0 0.0
2019-Mar-17 01:00N 50°49' W 001°06'0 0.0
2019-Mar-17 00:30N 50°49' W 001°06'0 0.0
2019-Mar-17 00:00N 50°49' W 001°06'0 0.0
2019-Mar-16 23:30N 50°49' W 001°06'0 0.0
2019-Mar-16 23:00N 50°49' W 001°06'0 0.0
2019-Mar-16 22:30N 50°49' W 001°06'0 0.0
2019-Mar-16 22:00N 50°49' W 001°06'0 0.0
2019-Mar-16 21:30N 50°49' W 001°06'0 0.0
2019-Mar-16 21:00N 50°49' W 001°06'0 0.0
2019-Mar-16 20:30N 50°49' W 001°06'0 0.0
2019-Mar-16 20:00N 50°49' W 001°06'0 0.0
2019-Mar-16 19:30N 50°49' W 001°06'0 0.0
2019-Mar-16 19:00N 50°49' W 001°06'0 0.0
2019-Mar-16 18:30N 50°49' W 001°06'0 0.0
2019-Mar-16 18:00N 50°49' W 001°06'0 0.0
2019-Mar-16 17:30N 50°49' W 001°06'0 0.0
2019-Mar-16 17:00N 50°49' W 001°06'0 0.0
2019-Mar-16 16:30N 50°49' W 001°06'0 0.0
2019-Mar-16 16:00N 50°49' W 001°06'0 0.0
2019-Mar-16 15:30N 50°49' W 001°06'0 0.0
2019-Mar-16 15:00N 50°49' W 001°06'0 0.0
2019-Mar-16 14:30N 50°49' W 001°06'0 0.0
2019-Mar-16 14:00N 50°49' W 001°06'0 0.0
2019-Mar-16 13:30N 50°49' W 001°06'0 0.0
2019-Mar-16 13:00N 50°49' W 001°06'0 0.0
2019-Mar-16 12:30N 50°49' W 001°06'0 0.0
2019-Mar-16 12:00N 50°49' W 001°06'0 0.0
2019-Mar-16 11:30N 50°49' W 001°06'0 0.0
2019-Mar-16 11:00N 50°49' W 001°06'0 0.0
2019-Mar-16 10:30N 50°49' W 001°06'0 0.0
2019-Mar-16 10:00N 50°49' W 001°06'0 0.2
2019-Mar-16 09:31N 50°49' W 001°06'3 5.1
2019-Mar-16 09:01N 50°46' W 001°06'612.0
2019-Mar-16 08:31N 50°40' W 001°04'714.0
2019-Mar-16 08:01N 50°34' W 001°10'713.6
2019-Mar-16 07:30N 50°29' W 001°17'1013.5
2019-Mar-16 06:46N 50°21' W 001°25'313.3
2019-Mar-16 06:30N 50°18' W 001°28'1314.0
2019-Mar-16 05:33N 50°06' W 001°39'115.4
2019-Mar-16 05:27N 50°05' W 001°40'817.1
2019-Mar-16 05:00N 49°59' W 001°47'917.6
2019-Mar-16 04:31N 49°52' W 001°55'918.6
2019-Mar-16 04:01N 49°44' W 002°03'918.4
2019-Mar-16 03:31N 49°36' W 002°09'918.1
2019-Mar-16 03:00N 49°27' W 002°14'917.8
2019-Mar-16 02:31N 49°19' W 002°20'714.5
2019-Mar-16 02:01N 49°12' W 002°20'814.8
2019-Mar-16 01:30N 49°10' W 002°09'1 0.8
2019-Mar-15 23:44N 49°11' W 002°07'3 2.6
2019-Mar-15 22:37N 49°10' W 002°11'217.7
2019-Mar-15 22:30N 49°10' W 002°14'917.1
2019-Mar-15 22:01N 49°14' W 002°26'714.3
2019-Mar-15 21:31N 49°21' W 002°28'714.1
2019-Mar-15 21:01N 49°27' W 002°32'0 0.0
2019-Mar-15 20:30N 49°27' W 002°32'0 0.0
2019-Mar-15 20:01N 49°27' W 002°32'0 0.0
2019-Mar-15 19:31N 49°27' W 002°32'0 0.2
2019-Mar-15 19:00N 49°27' W 002°32'510.4
2019-Mar-15 18:30N 49°27' W 002°24'815.8
2019-Mar-15 18:01N 49°32' W 002°14'713.8
2019-Mar-15 17:30N 49°37' W 002°07'714.7
2019-Mar-15 17:00N 49°44' W 002°01'714.6
2019-Mar-15 16:30N 49°46' W 001°51'713.3
2019-Mar-15 16:01N 49°47' W 001°41'612.8
2019-Mar-15 15:30N 49°50' W 001°31'611.7
2019-Mar-15 15:00N 49°53' W 001°24'3310.0
2019-Mar-15 11:40N 50°25' W 001°08'212.4
2019-Mar-15 11:29N 50°27' W 001°08'611.7
2019-Mar-15 11:00N 50°32' W 001°07'612.0
2019-Mar-15 10:30N 50°38' W 001°02'713.6
2019-Mar-15 10:01N 50°44' W 001°04'5 9.3
2019-Mar-15 09:30N 50°49' W 001°06'0 0.0
2019-Mar-15 09:01N 50°49' W 001°06'0 0.0
2019-Mar-15 08:30N 50°49' W 001°06'0 0.0
2019-Mar-15 08:00N 50°49' W 001°06'0 0.0
2019-Mar-15 07:31N 50°49' W 001°06'0 0.0
2019-Mar-15 07:00N 50°49' W 001°06'0 0.0
2019-Mar-15 06:30N 50°49' W 001°06'0 0.0
2019-Mar-15 06:01N 50°49' W 001°06'0 0.0
2019-Mar-15 05:30N 50°49' W 001°06'0 0.0
2019-Mar-15 05:00N 50°49' W 001°06'0 0.0
2019-Mar-15 04:30N 50°49' W 001°06'0 0.0
2019-Mar-15 04:01N 50°49' W 001°06'0 0.0
2019-Mar-15 03:30N 50°49' W 001°06'0 0.0
2019-Mar-15 03:00N 50°49' W 001°06'0 0.0
2019-Mar-15 02:31N 50°49' W 001°06'0 0.0
2019-Mar-15 02:00N 50°49' W 001°06'0 0.0
2019-Mar-15 01:30N 50°49' W 001°06'0 0.0
2019-Mar-15 01:01N 50°49' W 001°06'0 0.0
2019-Mar-15 00:30N 50°49' W 001°06'0 0.0
2019-Mar-15 00:00N 50°49' W 001°06'0 0.0
2019-Mar-14 23:30N 50°49' W 001°06'0 0.0
2019-Mar-14 23:00N 50°49' W 001°06'0 0.0
2019-Mar-14 22:30N 50°49' W 001°06'0 0.0
2019-Mar-14 22:01N 50°49' W 001°06'0 0.0
2019-Mar-14 21:31N 50°49' W 001°06'0 0.0
2019-Mar-14 21:00N 50°49' W 001°06'0 0.0
2019-Mar-14 20:30N 50°49' W 001°06'0 0.0
2019-Mar-14 20:00N 50°49' W 001°06'0 0.0
2019-Mar-14 19:31N 50°49' W 001°06'0 0.0
2019-Mar-14 19:00N 50°49' W 001°06'0 0.0
2019-Mar-14 18:30N 50°49' W 001°06'0 0.0
2019-Mar-14 18:00N 50°49' W 001°06'0 0.0
2019-Mar-14 17:31N 50°49' W 001°06'0 0.0
2019-Mar-14 17:00N 50°49' W 001°06'0 0.0
2019-Mar-14 16:31N 50°49' W 001°06'0 0.0
2019-Mar-14 16:00N 50°49' W 001°06'0 0.0
2019-Mar-14 15:31N 50°49' W 001°06'0 0.0
2019-Mar-14 15:00N 50°49' W 001°06'0 0.0
2019-Mar-14 14:31N 50°49' W 001°06'0 0.0
2019-Mar-14 14:00N 50°49' W 001°06'0 0.0
2019-Mar-14 13:31N 50°49' W 001°06'0 0.0
2019-Mar-14 13:00N 50°49' W 001°06'0 0.0
2019-Mar-14 12:30N 50°49' W 001°06'0 0.0
2019-Mar-14 12:01N 50°49' W 001°06'0 0.0
2019-Mar-14 11:30N 50°49' W 001°06'0 0.0
2019-Mar-14 11:00N 50°49' W 001°06'0 0.0
2019-Mar-14 10:30N 50°49' W 001°06'0 0.0
2019-Mar-14 10:00N 50°49' W 001°06'0 0.0
2019-Mar-14 09:31N 50°49' W 001°06'1 1.4
2019-Mar-14 09:00N 50°49' W 001°07'4 8.8
2019-Mar-14 08:31N 50°44' W 001°04'4 7.8
2019-Mar-14 08:00N 50°41' W 001°03'714.4
2019-Mar-14 07:30N 50°34' W 001°09'714.1
2019-Mar-14 07:00N 50°28' W 001°15'2914.7
2019-Mar-14 05:04N 50°05' W 001°41'114.8
2019-Mar-14 04:58N 50°04' W 001°42'715.1
2019-Mar-14 04:31N 49°58' W 001°48'815.7
2019-Mar-14 04:01N 49°52' W 001°55'816.2
2019-Mar-14 03:31N 49°45' W 002°02'815.7
2019-Mar-14 03:01N 49°37' W 002°05'816.6
2019-Mar-14 02:31N 49°30' W 002°10'817.0
2019-Mar-14 02:01N 49°23' W 002°17'714.6
2019-Mar-14 01:31N 49°17' W 002°24'713.5
2019-Mar-14 01:01N 49°11' W 002°18'5 1.5
2019-Mar-13 21:47N 49°10' W 002°11'415.5
2019-Mar-13 21:30N 49°11' W 002°17'715.0
2019-Mar-13 21:00N 49°18' W 002°23'816.8
2019-Mar-13 20:31N 49°25' W 002°29'3 6.2
2019-Mar-13 20:01N 49°27' W 002°32'0 0.0
2019-Mar-13 19:31N 49°27' W 002°32'0 0.0
2019-Mar-13 19:01N 49°27' W 002°32'0 0.0
2019-Mar-13 18:30N 49°27' W 002°32'0 0.0
2019-Mar-13 18:00N 49°27' W 002°32'1 1.5
2019-Mar-13 17:31N 49°27' W 002°31'611.4
2019-Mar-13 17:01N 49°28' W 002°22'816.1
2019-Mar-13 16:30N 49°32' W 002°11'816.5
2019-Mar-13 16:00N 49°39' W 002°05'918.0
2019-Mar-13 15:31N 49°46' W 001°56'815.5
2019-Mar-13 15:00N 49°50' W 001°46'714.1
2019-Mar-13 14:31N 49°54' W 001°37'713.3
2019-Mar-13 14:00N 49°58' W 001°28'2613.0
2019-Mar-13 11:59N 50°23' W 001°15'612.5
2019-Mar-13 11:29N 50°29' W 001°11'612.2
2019-Mar-13 11:01N 50°34' W 001°06'713.7
2019-Mar-13 10:31N 50°40' W 001°01'714.9
2019-Mar-13 10:00N 50°46' W 001°06'2 4.5
2019-Mar-13 09:30N 50°49' W 001°06'0 0.0
2019-Mar-13 09:00N 50°49' W 001°06'0 0.0
2019-Mar-13 08:30N 50°49' W 001°06'0 0.0
2019-Mar-13 08:00N 50°49' W 001°06'0 0.0
2019-Mar-13 07:30N 50°49' W 001°06'0 0.0
2019-Mar-13 07:00N 50°49' W 001°06'0 0.6
2019-Mar-13 06:31N 50°49' W 001°06'5 9.6
2019-Mar-13 06:01N 50°44' W 001°04'713.8
2019-Mar-13 05:30N 50°37' W 001°06'713.9
2019-Mar-13 05:00N 50°31' W 001°09'714.5
2019-Mar-13 04:30N 50°25' W 001°16'2415.0
2019-Mar-13 02:54N 50°06' W 001°40'1416.2
2019-Mar-13 02:01N 49°54' W 001°51'917.4
2019-Mar-13 01:30N 49°47' W 001°59'816.1
2019-Mar-13 01:01N 49°39' W 002°03'816.2
2019-Mar-13 00:31N 49°33' W 002°11'917.7
2019-Mar-13 00:01N 49°24' W 002°16'815.2
2019-Mar-12 23:31N 49°20' W 002°25'612.0
2019-Mar-12 23:01N 49°14' W 002°21'510.2
2019-Mar-12 22:29N 49°10' W 002°16'2 0.5
2019-Mar-12 19:15N 49°10' W 002°13'415.9
2019-Mar-12 19:00N 49°11' W 002°19'612.9
2019-Mar-12 18:30N 49°14' W 002°28'611.1
2019-Mar-12 18:01N 49°18' W 002°22'714.4
2019-Mar-12 17:31N 49°24' W 002°16'917.7
2019-Mar-12 17:01N 49°33' W 002°11'918.3
2019-Mar-12 16:31N 49°41' W 002°06'918.6
2019-Mar-12 16:01N 49°48' W 001°57'816.6
2019-Mar-12 15:31N 49°54' W 001°48'815.8
2019-Mar-12 15:00N 49°59' W 001°39'2910.8
2019-Mar-12 12:22N 50°22' W 001°12'3 8.5
2019-Mar-12 11:59N 50°25' W 001°11'  

Dump ship's entire track history